createdAt,value
2016-06-12T00:00:05.292Z,0
2016-06-12T00:01:05.248Z,0
2016-06-12T00:02:05.282Z,0
2016-06-12T00:03:05.223Z,0
2016-06-12T00:04:05.242Z,0
2016-06-12T00:05:05.948Z,0
2016-06-12T00:06:05.263Z,0
2016-06-12T00:07:05.205Z,0
2016-06-12T00:08:05.176Z,0
2016-06-12T00:09:05.189Z,0
2016-06-12T00:10:05.215Z,0
2016-06-12T00:11:05.256Z,0
2016-06-12T00:12:05.313Z,0
2016-06-12T00:13:05.151Z,0
2016-06-12T00:14:05.332Z,0
2016-06-12T00:15:05.317Z,0
2016-06-12T00:16:05.303Z,0
2016-06-12T00:17:05.335Z,0
2016-06-12T00:18:05.321Z,0
2016-06-12T00:19:05.301Z,0
2016-06-12T00:20:05.496Z,0
2016-06-12T00:21:05.270Z,0
2016-06-12T00:22:05.293Z,0
2016-06-12T00:23:05.286Z,0
2016-06-12T00:24:05.292Z,0
2016-06-12T00:25:05.265Z,0
2016-06-12T00:26:05.255Z,0
2016-06-12T00:27:05.244Z,0
2016-06-12T00:28:05.249Z,0
2016-06-12T00:29:05.238Z,0
2016-06-12T00:30:05.226Z,0
2016-06-12T00:31:05.182Z,0
2016-06-12T00:32:05.186Z,0
2016-06-12T00:33:05.173Z,0
2016-06-12T00:34:05.162Z,0
2016-06-12T00:35:05.180Z,0
2016-06-12T00:36:05.121Z,0
2016-06-12T00:37:05.187Z,0
2016-06-12T00:38:05.112Z,0
2016-06-12T00:39:05.115Z,0
2016-06-12T00:40:05.088Z,0
2016-06-12T00:41:05.074Z,0
2016-06-12T00:42:05.078Z,0
2016-06-12T00:43:05.065Z,0
2016-06-12T00:44:05.053Z,0
2016-06-12T00:45:05.087Z,0
2016-06-12T00:46:05.028Z,0
2016-06-12T00:47:05.047Z,0
2016-06-12T00:48:05.003Z,0
2016-06-12T00:49:05.006Z,0
2016-06-12T00:50:05.150Z,0
2016-06-12T00:51:04.965Z,0
2016-06-12T00:52:04.953Z,0
2016-06-12T00:53:04.955Z,0
2016-06-12T00:54:04.928Z,0
2016-06-12T00:55:04.915Z,0
2016-06-12T00:56:04.902Z,0
2016-06-12T00:57:04.874Z,0
2016-06-12T00:58:04.877Z,0
2016-06-12T00:59:04.865Z,0
2016-06-12T01:00:04.680Z,0
2016-06-12T01:01:04.855Z,0
2016-06-12T01:02:04.811Z,0
2016-06-12T01:03:04.861Z,0
2016-06-12T01:04:04.818Z,0
2016-06-12T01:05:04.961Z,0
2016-06-12T01:06:05.386Z,0
2016-06-12T01:07:04.779Z,0
2016-06-12T01:08:04.737Z,0
2016-06-12T01:09:04.739Z,0
2016-06-12T01:10:04.743Z,0
2016-06-12T01:11:04.558Z,0
2016-06-12T01:12:04.544Z,0
2016-06-12T01:13:04.673Z,0
2016-06-12T01:14:04.520Z,0
2016-06-12T01:15:04.586Z,0
2016-06-12T01:16:04.668Z,0
2016-06-12T01:17:04.498Z,0
2016-06-12T01:18:04.643Z,0
2016-06-12T01:19:04.613Z,0
2016-06-12T01:20:05.273Z,0
2016-06-12T01:21:05.182Z,0
2016-06-12T01:22:04.591Z,0
2016-06-12T01:23:04.564Z,0
2016-06-12T01:24:04.567Z,0
2016-06-12T01:25:04.539Z,0
2016-06-12T01:26:04.557Z,0
2016-06-12T01:27:04.529Z,0
2016-06-12T01:28:04.532Z,0
2016-06-12T01:29:04.488Z,0
2016-06-12T01:30:04.475Z,0
2016-06-12T01:31:04.479Z,0
2016-06-12T01:32:04.466Z,0
2016-06-12T01:33:04.469Z,0
2016-06-12T01:34:04.442Z,0
2016-06-12T01:35:04.554Z,0
2016-06-12T01:36:04.760Z,0
2016-06-12T01:37:04.372Z,0
2016-06-12T01:38:04.407Z,0
2016-06-12T01:39:04.363Z,0
2016-06-12T01:40:04.381Z,0
2016-06-12T01:41:04.354Z,0
2016-06-12T01:42:04.169Z,0
2016-06-12T01:43:04.312Z,0
2016-06-12T01:44:04.300Z,0
2016-06-12T01:45:04.288Z,0
2016-06-12T01:46:04.275Z,0
2016-06-12T01:47:04.246Z,0
2016-06-12T01:48:04.313Z,0
2016-06-12T01:49:04.238Z,0
2016-06-12T01:50:04.303Z,0
2016-06-12T01:51:04.072Z,0
2016-06-12T01:52:04.247Z,0
2016-06-12T01:53:04.203Z,0
2016-06-12T01:54:04.190Z,0
2016-06-12T01:55:04.163Z,0
2016-06-12T01:56:04.227Z,0
2016-06-12T01:57:04.152Z,0
2016-06-12T01:58:04.172Z,0
2016-06-12T01:59:04.111Z,0
2016-06-12T02:00:04.162Z,0
2016-06-12T02:01:03.946Z,0
2016-06-12T02:02:03.934Z,0
2016-06-12T02:03:04.046Z,0
2016-06-12T02:04:04.096Z,0
2016-06-12T02:05:04.052Z,0
2016-06-12T02:06:05.602Z,0
2016-06-12T02:07:04.027Z,0
2016-06-12T02:08:04.092Z,0
2016-06-12T02:09:03.831Z,0
2016-06-12T02:10:04.037Z,0
2016-06-12T02:11:03.946Z,0
2016-06-12T02:12:03.980Z,0
2016-06-12T02:13:03.952Z,0
2016-06-12T02:14:03.783Z,0
2016-06-12T02:15:03.896Z,0
2016-06-12T02:16:03.930Z,0
2016-06-12T02:17:03.886Z,0
2016-06-12T02:18:03.920Z,0
2016-06-12T02:19:03.861Z,0
2016-06-12T02:20:04.083Z,0
2016-06-12T02:21:05.242Z,0
2016-06-12T02:22:03.902Z,0
2016-06-12T02:23:03.857Z,0
2016-06-12T02:24:03.876Z,0
2016-06-12T02:25:03.785Z,0
2016-06-12T02:26:03.836Z,0
2016-06-12T02:27:03.761Z,0
2016-06-12T02:28:03.763Z,0
2016-06-12T02:29:03.595Z,0
2016-06-12T02:30:03.754Z,0
2016-06-12T02:31:03.710Z,0
2016-06-12T02:32:03.760Z,0
2016-06-12T02:33:03.702Z,0
2016-06-12T02:34:03.751Z,0
2016-06-12T02:35:04.191Z,0
2016-06-12T02:36:03.725Z,0
2016-06-12T02:37:03.635Z,0
2016-06-12T02:38:03.592Z,0
2016-06-12T02:39:03.610Z,4
2016-06-12T02:40:03.660Z,4
2016-06-12T02:41:03.568Z,4
2016-06-12T02:42:03.557Z,0
2016-06-12T02:43:03.560Z,0
2016-06-12T02:44:03.547Z,4
2016-06-12T02:45:03.535Z,4
2016-06-12T02:46:03.538Z,4
2016-06-12T02:47:03.509Z,8
2016-06-12T02:48:03.512Z,4
2016-06-12T02:49:03.484Z,4
2016-06-12T02:50:03.471Z,8
2016-06-12T02:51:04.693Z,4
2016-06-12T02:52:03.432Z,8
2016-06-12T02:53:03.449Z,8
2016-06-12T02:54:03.405Z,8
2016-06-12T02:55:03.394Z,12
2016-06-12T02:56:03.381Z,12
2016-06-12T02:57:03.367Z,16
2016-06-12T02:58:03.356Z,12
2016-06-12T02:59:03.359Z,16
2016-06-12T03:00:03.331Z,16
2016-06-12T03:01:03.318Z,16
2016-06-12T03:02:03.321Z,24
2016-06-12T03:03:03.293Z,24
2016-06-12T03:04:03.296Z,24
2016-06-12T03:05:03.268Z,24
2016-06-12T03:06:03.411Z,28
2016-06-12T03:07:03.258Z,28
2016-06-12T03:08:03.246Z,36
2016-06-12T03:09:03.234Z,36
2016-06-12T03:10:03.220Z,40
2016-06-12T03:11:03.193Z,40
2016-06-12T03:12:03.039Z,44
2016-06-12T03:13:03.183Z,44
2016-06-12T03:14:03.170Z,48
2016-06-12T03:15:03.142Z,48
2016-06-12T03:16:03.131Z,52
2016-06-12T03:17:03.226Z,56
2016-06-12T03:18:03.104Z,60
2016-06-12T03:19:03.123Z,64
2016-06-12T03:20:03.110Z,64
2016-06-12T03:21:03.083Z,68
2016-06-12T03:22:03.054Z,72
2016-06-12T03:23:03.057Z,76
2016-06-12T03:24:03.045Z,80
2016-06-12T03:25:03.017Z,80
2016-06-12T03:26:03.020Z,88
2016-06-12T03:27:03.007Z,92
2016-06-12T03:28:02.963Z,96
2016-06-12T03:29:02.982Z,100
2016-06-12T03:30:02.939Z,112
2016-06-12T03:31:02.941Z,116
2016-06-12T03:32:02.929Z,120
2016-06-12T03:33:02.933Z,124
2016-06-12T03:34:02.576Z,128
2016-06-12T03:35:02.954Z,132
2016-06-12T03:36:03.691Z,136
2016-06-12T03:37:02.913Z,140
2016-06-12T03:38:02.869Z,148
2016-06-12T03:39:02.872Z,148
2016-06-12T03:40:02.829Z,152
2016-06-12T03:41:02.816Z,160
2016-06-12T03:42:02.789Z,168
2016-06-12T03:43:02.822Z,168
2016-06-12T03:44:02.794Z,176
2016-06-12T03:45:02.828Z,180
2016-06-12T03:46:02.784Z,184
2016-06-12T03:47:02.757Z,188
2016-06-12T03:48:02.729Z,192
2016-06-12T03:49:02.731Z,196
2016-06-12T03:50:02.688Z,196
2016-06-12T03:51:03.034Z,200
2016-06-12T03:52:02.678Z,204
2016-06-12T03:53:02.650Z,208
2016-06-12T03:54:02.653Z,216
2016-06-12T03:55:02.672Z,220
2016-06-12T03:56:02.612Z,232
2016-06-12T03:57:02.599Z,240
2016-06-12T03:58:02.602Z,248
2016-06-12T03:59:02.574Z,256
2016-06-12T04:00:02.562Z,268
2016-06-12T04:01:02.565Z,276
2016-06-12T04:02:02.552Z,284
2016-06-12T04:03:02.367Z,300
2016-06-12T04:04:02.512Z,312
2016-06-12T04:05:02.499Z,328
2016-06-12T04:06:02.924Z,352
2016-06-12T04:07:02.474Z,372
2016-06-12T04:08:02.290Z,400
2016-06-12T04:09:02.480Z,424
2016-06-12T04:10:02.436Z,456
2016-06-12T04:11:02.424Z,488
2016-06-12T04:12:02.411Z,516
2016-06-12T04:13:02.383Z,540
2016-06-12T04:14:02.387Z,564
2016-06-12T04:15:02.389Z,588
2016-06-12T04:16:02.346Z,608
2016-06-12T04:17:02.333Z,624
2016-06-12T04:18:02.336Z,636
2016-06-12T04:19:02.323Z,640
2016-06-12T04:20:02.311Z,644
2016-06-12T04:21:03.564Z,648
2016-06-12T04:22:02.129Z,652
2016-06-12T04:23:02.273Z,660
2016-06-12T04:24:02.260Z,668
2016-06-12T04:25:02.280Z,684
2016-06-12T04:26:02.251Z,700
2016-06-12T04:27:02.238Z,724
2016-06-12T04:28:02.288Z,748
2016-06-12T04:29:02.183Z,776
2016-06-12T04:30:01.936Z,808
2016-06-12T04:31:02.189Z,840
2016-06-12T04:32:02.003Z,880
2016-06-12T04:33:02.148Z,924
2016-06-12T04:34:02.182Z,968
2016-06-12T04:35:02.107Z,1008
2016-06-12T04:36:02.360Z,1040
2016-06-12T04:37:02.082Z,1064
2016-06-12T04:38:02.086Z,1088
2016-06-12T04:39:02.072Z,1104
2016-06-12T04:40:02.075Z,1120
2016-06-12T04:41:02.032Z,1136
2016-06-12T04:42:02.035Z,1156
2016-06-12T04:43:02.038Z,1176
2016-06-12T04:44:01.994Z,1196
2016-06-12T04:45:01.997Z,1224
2016-06-12T04:46:02.078Z,1248
2016-06-12T04:47:01.972Z,1272
2016-06-12T04:48:01.944Z,1280
2016-06-12T04:49:01.947Z,1288
2016-06-12T04:50:02.012Z,1296
2016-06-12T04:51:01.922Z,1316
2016-06-12T04:52:02.316Z,1340
2016-06-12T04:53:01.881Z,1360
2016-06-12T04:54:01.884Z,1384
2016-06-12T04:55:01.872Z,1416
2016-06-12T04:56:01.859Z,1464
2016-06-12T04:57:01.846Z,1504
2016-06-12T04:58:01.834Z,1532
2016-06-12T04:59:01.806Z,1552
2016-06-12T05:00:01.856Z,1564
2016-06-12T05:01:01.781Z,1580
2016-06-12T05:02:01.627Z,1592
2016-06-12T05:03:01.755Z,1596
2016-06-12T05:04:01.758Z,1588
2016-06-12T05:05:01.730Z,1576
2016-06-12T05:06:01.609Z,1576
2016-06-12T05:07:01.550Z,1596
2016-06-12T05:08:01.692Z,1632
2016-06-12T05:09:01.695Z,1672
2016-06-12T05:10:01.543Z,1728
2016-06-12T05:11:01.702Z,1792
2016-06-12T05:12:01.657Z,1872
2016-06-12T05:13:01.646Z,1956
2016-06-12T05:14:01.680Z,2032
2016-06-12T05:15:01.636Z,2108
2016-06-12T05:16:01.608Z,2188
2016-06-12T05:17:01.439Z,2276
2016-06-12T05:18:01.614Z,2376
2016-06-12T05:19:01.571Z,2464
2016-06-12T05:20:01.557Z,2552
2016-06-12T05:21:01.560Z,2632
2016-06-12T05:22:01.721Z,2708
2016-06-12T05:23:01.505Z,2780
2016-06-12T05:24:01.507Z,2844
2016-06-12T05:25:01.495Z,2912
2016-06-12T05:26:01.325Z,2984
2016-06-12T05:27:01.470Z,3064
2016-06-12T05:28:01.457Z,3144
2016-06-12T05:29:01.414Z,3208
2016-06-12T05:30:01.276Z,3272
2016-06-12T05:31:01.421Z,3348
2016-06-12T05:32:01.407Z,3420
2016-06-12T05:33:01.411Z,3520
2016-06-12T05:34:01.366Z,3652
2016-06-12T05:35:01.370Z,3760
2016-06-12T05:36:01.810Z,3844
2016-06-12T05:37:01.173Z,3872
2016-06-12T05:38:01.348Z,3852
2016-06-12T05:39:01.148Z,3816
2016-06-12T05:40:01.291Z,3764
2016-06-12T05:41:01.310Z,3756
2016-06-12T05:42:01.297Z,3780
2016-06-12T05:43:01.285Z,3800
2016-06-12T05:44:01.272Z,3820
2016-06-12T05:45:01.275Z,3792
2016-06-12T05:46:01.091Z,3752
2016-06-12T05:47:01.234Z,3744
2016-06-12T05:48:01.206Z,3716
2016-06-12T05:49:01.240Z,3668
2016-06-12T05:50:01.212Z,3600
2016-06-12T05:51:01.200Z,3568
2016-06-12T05:52:02.594Z,3564
2016-06-12T05:53:00.988Z,3544
2016-06-12T05:54:01.147Z,3544
2016-06-12T05:55:01.197Z,3560
2016-06-12T05:56:01.106Z,3588
2016-06-12T05:57:01.109Z,3620
2016-06-12T05:58:01.097Z,3644
2016-06-12T05:59:01.068Z,3660
2016-06-12T06:00:01.071Z,3676
2016-06-12T06:01:01.059Z,3688
2016-06-12T06:02:01.046Z,3688
2016-06-12T06:03:01.050Z,3688
2016-06-12T06:04:01.005Z,3692
2016-06-12T06:05:01.071Z,3704
2016-06-12T06:06:00.855Z,3716
2016-06-12T06:07:01.624Z,3716
2016-06-12T06:08:00.971Z,3716
2016-06-12T06:09:00.958Z,3728
2016-06-12T06:10:00.946Z,3752
2016-06-12T06:11:00.980Z,3784
2016-06-12T06:12:00.921Z,3832
2016-06-12T06:13:00.908Z,3900
2016-06-12T06:14:00.895Z,3984
2016-06-12T06:15:00.884Z,4064
2016-06-12T06:16:00.886Z,4140
2016-06-12T06:17:00.873Z,4228
2016-06-12T06:18:00.861Z,4368
2016-06-12T06:19:00.849Z,4520
2016-06-12T06:20:00.836Z,4648
2016-06-12T06:21:01.791Z,4768
2016-06-12T06:22:00.655Z,4856
2016-06-12T06:23:00.876Z,4916
2016-06-12T06:24:00.770Z,4984
2016-06-12T06:25:00.804Z,5084
2016-06-12T06:26:00.761Z,5200
2016-06-12T06:27:00.748Z,5324
2016-06-12T06:28:00.735Z,5456
2016-06-12T06:29:00.739Z,5620
2016-06-12T06:30:00.727Z,5820
2016-06-12T06:31:00.714Z,6032
2016-06-12T06:32:00.685Z,6264
2016-06-12T06:33:00.673Z,6512
2016-06-12T06:34:00.660Z,6772
2016-06-12T06:35:00.662Z,6960
2016-06-12T06:36:00.713Z,7064
2016-06-12T06:37:01.763Z,7208
2016-06-12T06:38:00.626Z,7372
2016-06-12T06:39:00.613Z,7564
2016-06-12T06:40:00.633Z,7740
2016-06-12T06:41:00.589Z,7876
2016-06-12T06:42:00.559Z,7940
2016-06-12T06:43:00.563Z,7976
2016-06-12T06:44:00.550Z,8048
2016-06-12T06:45:00.538Z,8084
2016-06-12T06:46:00.541Z,8116
2016-06-12T06:47:00.529Z,8168
2016-06-12T06:48:00.532Z,8244
2016-06-12T06:49:00.502Z,8328
2016-06-12T06:50:00.569Z,8476
2016-06-12T06:51:00.478Z,8640
2016-06-12T06:52:01.325Z,8692
2016-06-12T06:53:00.484Z,8784
2016-06-12T06:54:00.471Z,8820
2016-06-12T06:55:00.506Z,8936
2016-06-12T06:56:00.477Z,9236
2016-06-12T06:57:00.419Z,9476
2016-06-12T06:58:00.438Z,9760
2016-06-12T06:59:00.393Z,9656
2016-06-12T07:00:00.412Z,9560
2016-06-12T07:01:00.368Z,9468
2016-06-12T07:02:00.403Z,9332
2016-06-12T07:03:00.374Z,9084
2016-06-12T07:04:00.409Z,8512
2016-06-12T07:05:00.177Z,7764
2016-06-12T07:06:00.352Z,7124
2016-06-12T07:07:00.169Z,6684
2016-06-12T07:08:00.297Z,6408
2016-06-12T07:09:00.300Z,6204
2016-06-12T07:10:00.317Z,6096
2016-06-12T07:11:00.306Z,6072
2016-06-12T07:12:00.340Z,6132
2016-06-12T07:13:00.280Z,6204
2016-06-12T07:14:00.267Z,6280
2016-06-12T07:15:00.255Z,6388
2016-06-12T07:16:00.243Z,6556
2016-06-12T07:17:00.246Z,6816
2016-06-12T07:18:00.249Z,7168
2016-06-12T07:19:00.205Z,7528
2016-06-12T07:20:00.208Z,7876
2016-06-12T07:21:00.195Z,8124
2016-06-12T07:22:00.682Z,8204
2016-06-12T07:23:00.186Z,8072
2016-06-12T07:24:00.189Z,7888
2016-06-12T07:25:00.207Z,7828
2016-06-12T07:26:00.164Z,7976
2016-06-12T07:27:00.151Z,8296
2016-06-12T07:28:00.154Z,8712
2016-06-12T07:29:00.111Z,9132
2016-06-12T07:30:00.129Z,9480
2016-06-12T07:31:00.132Z,9572
2016-06-12T07:31:59.963Z,9504
2016-06-12T07:33:00.091Z,9300
2016-06-12T07:34:00.094Z,9036
2016-06-12T07:35:00.082Z,8824
2016-06-12T07:36:00.069Z,8724
2016-06-12T07:36:59.916Z,8776
2016-06-12T07:38:00.123Z,8904
2016-06-12T07:39:00.032Z,9044
2016-06-12T07:40:00.035Z,9132
2016-06-12T07:41:00.085Z,9140
2016-06-12T07:42:00.026Z,9072
2016-06-12T07:43:00.029Z,9000
2016-06-12T07:44:00.016Z,8964
2016-06-12T07:45:00.003Z,9020
2016-06-12T07:45:59.975Z,9156
2016-06-12T07:47:00.072Z,9352
2016-06-12T07:47:59.966Z,9612
2016-06-12T07:48:59.984Z,9948
2016-06-12T07:49:59.972Z,10320
2016-06-12T07:50:59.975Z,10672
2016-06-12T07:51:59.962Z,11024
2016-06-12T07:52:59.778Z,11440
2016-06-12T07:53:59.922Z,11672
2016-06-12T07:54:59.925Z,11656
2016-06-12T07:55:59.912Z,11660
2016-06-12T07:56:59.962Z,11792
2016-06-12T07:57:59.918Z,12016
2016-06-12T07:58:59.890Z,12348
2016-06-12T07:59:59.893Z,12468
2016-06-12T08:00:59.896Z,12336
2016-06-12T08:01:59.869Z,12032
2016-06-12T08:02:59.855Z,11856
2016-06-12T08:03:59.875Z,11844
2016-06-12T08:04:59.861Z,12024
2016-06-12T08:05:59.849Z,12168
2016-06-12T08:07:00.384Z,12076
2016-06-12T08:07:59.839Z,11896
2016-06-12T08:08:59.827Z,11624
2016-06-12T08:09:59.815Z,11216
2016-06-12T08:10:59.802Z,10952
2016-06-12T08:11:59.805Z,10784
2016-06-12T08:12:59.793Z,10696
2016-06-12T08:13:59.811Z,10628
2016-06-12T08:14:59.783Z,10520
2016-06-12T08:15:59.770Z,10412
2016-06-12T08:16:59.773Z,10392
2016-06-12T08:17:59.745Z,10584
2016-06-12T08:18:59.749Z,11052
2016-06-12T08:19:59.751Z,11704
2016-06-12T08:20:59.739Z,12448
2016-06-12T08:22:00.055Z,13268
2016-06-12T08:22:59.574Z,14128
2016-06-12T08:23:59.780Z,14596
2016-06-12T08:24:59.705Z,14844
2016-06-12T08:25:59.755Z,15200
2016-06-12T08:26:59.695Z,15260
2016-06-12T08:27:59.729Z,15216
2016-06-12T08:28:59.718Z,15088
2016-06-12T08:29:59.688Z,14776
2016-06-12T08:30:59.677Z,14524
2016-06-12T08:31:59.819Z,14224
2016-06-12T08:32:59.650Z,14192
2016-06-12T08:33:59.670Z,14300
2016-06-12T08:34:59.641Z,14392
2016-06-12T08:35:59.707Z,14504
2016-06-12T08:36:59.757Z,14484
2016-06-12T08:37:59.745Z,14508
2016-06-12T08:38:59.466Z,14600
2016-06-12T08:39:59.657Z,14400
2016-06-12T08:40:59.613Z,14260
2016-06-12T08:41:59.617Z,14252
2016-06-12T08:42:59.589Z,14160
2016-06-12T08:43:59.622Z,14020
2016-06-12T08:44:59.579Z,13996
2016-06-12T08:45:59.597Z,14808
2016-06-12T08:46:59.412Z,15712
2016-06-12T08:47:59.557Z,16160
2016-06-12T08:48:59.575Z,16512
2016-06-12T08:49:59.563Z,16480
2016-06-12T08:50:59.550Z,16032
2016-06-12T08:51:59.397Z,15776
2016-06-12T08:52:59.384Z,16064
2016-06-12T08:53:59.545Z,16352
2016-06-12T08:54:59.563Z,16512
2016-06-12T08:55:59.518Z,16608
2016-06-12T08:56:59.522Z,16352
2016-06-12T08:57:59.525Z,15840
2016-06-12T08:58:59.560Z,15124
2016-06-12T08:59:59.499Z,14100
2016-06-12T09:00:59.566Z,13656
2016-06-12T09:01:59.506Z,13744
2016-06-12T09:02:59.322Z,13892
2016-06-12T09:03:59.496Z,13812
2016-06-12T09:04:59.593Z,13852
2016-06-12T09:05:59.471Z,13812
2016-06-12T09:07:00.787Z,13460
2016-06-12T09:07:59.463Z,13172
2016-06-12T09:08:59.511Z,12840
2016-06-12T09:09:59.484Z,12672
2016-06-12T09:10:59.487Z,12560
2016-06-12T09:11:59.474Z,12456
2016-06-12T09:12:59.430Z,12144
2016-06-12T09:13:59.419Z,11816
2016-06-12T09:14:59.462Z,11828
2016-06-12T09:15:59.490Z,12272
2016-06-12T09:16:59.519Z,13100
2016-06-12T09:17:59.422Z,14088
2016-06-12T09:18:59.606Z,14380
2016-06-12T09:19:59.452Z,15068
2016-06-12T09:20:59.750Z,15936
2016-06-12T09:21:59.518Z,17056
2016-06-12T09:22:59.536Z,16928
2016-06-12T09:23:59.647Z,24704
2016-06-12T09:24:59.671Z,27104
2016-06-12T09:25:59.647Z,30464
2016-06-12T09:26:59.640Z,28416
2016-06-12T09:27:59.696Z,28960
2016-06-12T09:28:59.641Z,30880
2016-06-12T09:29:59.677Z,28192
2016-06-12T09:30:59.650Z,26240
2016-06-12T09:31:59.656Z,25792
2016-06-12T09:32:59.644Z,23360
2016-06-12T09:33:59.649Z,28992
2016-06-12T09:34:59.622Z,27136
2016-06-12T09:35:59.736Z,28032
2016-06-12T09:36:59.505Z,32288
2016-06-12T09:37:59.946Z,29120
2016-06-12T09:38:59.654Z,28640
2016-06-12T09:39:59.610Z,26272
2016-06-12T09:40:59.613Z,25888
2016-06-12T09:41:59.664Z,27328
2016-06-12T09:42:59.604Z,28128
2016-06-12T09:43:59.608Z,29504
2016-06-12T09:44:59.611Z,24736
2016-06-12T09:45:59.599Z,25376
2016-06-12T09:46:59.570Z,26848
2016-06-12T09:47:59.620Z,27712
2016-06-12T09:48:59.436Z,25728
2016-06-12T09:49:59.595Z,23296
2016-06-12T09:50:59.568Z,17984
2016-06-12T09:51:59.992Z,16000
2016-06-12T09:52:59.557Z,14208
2016-06-12T09:53:59.592Z,14400
2016-06-12T09:54:59.564Z,14852
2016-06-12T09:55:59.551Z,15840
2016-06-12T09:56:59.569Z,17856
2016-06-12T09:57:59.558Z,20480
2016-06-12T09:58:59.592Z,16416
2016-06-12T09:59:59.548Z,15144
2016-06-12T10:00:59.535Z,17600
2016-06-12T10:01:59.538Z,15360
2016-06-12T10:02:59.526Z,19840
2016-06-12T10:03:59.544Z,19008
2016-06-12T10:04:59.513Z,18752
2016-06-12T10:05:59.344Z,24832
2016-06-12T10:07:00.241Z,21600
2016-06-12T10:08:00.259Z,13884
2016-06-12T10:08:59.509Z,11956
2016-06-12T10:09:59.326Z,11452
2016-06-12T10:10:59.501Z,11172
2016-06-12T10:11:59.487Z,11160
2016-06-12T10:12:59.554Z,11568
2016-06-12T10:13:59.525Z,11052
2016-06-12T10:14:59.544Z,10980
2016-06-12T10:15:59.531Z,11332
2016-06-12T10:16:59.534Z,15212
2016-06-12T10:17:59.459Z,14056
2016-06-12T10:18:59.587Z,13020
2016-06-12T10:19:59.466Z,14436
2016-06-12T10:20:59.453Z,13448
2016-06-12T10:21:59.440Z,14208
2016-06-12T10:22:59.694Z,16960
2016-06-12T10:23:59.494Z,13428
2016-06-12T10:24:59.513Z,13508
2016-06-12T10:25:59.437Z,13944
2016-06-12T10:26:59.425Z,17856
2016-06-12T10:27:59.428Z,19136
2016-06-12T10:28:59.415Z,13816
2016-06-12T10:29:59.403Z,11784
2016-06-12T10:30:59.406Z,10956
2016-06-12T10:31:59.410Z,10364
2016-06-12T10:32:59.397Z,9860
2016-06-12T10:33:59.384Z,9476
2016-06-12T10:34:59.418Z,9156
2016-06-12T10:35:59.359Z,8928
2016-06-12T10:36:59.378Z,8772
2016-06-12T10:38:00.021Z,8676
2016-06-12T10:38:59.352Z,8632
2016-06-12T10:39:59.371Z,8680
2016-06-12T10:40:59.374Z,8804
2016-06-12T10:41:59.658Z,9432
2016-06-12T10:42:59.427Z,9752
2016-06-12T10:43:59.430Z,10128
2016-06-12T10:44:59.355Z,10244
2016-06-12T10:45:59.342Z,9964
2016-06-12T10:46:59.158Z,9856
2016-06-12T10:47:59.192Z,9700
2016-06-12T10:48:59.321Z,9544
2016-06-12T10:49:59.324Z,9460
2016-06-12T10:50:59.138Z,9408
2016-06-12T10:51:59.142Z,9492
2016-06-12T10:52:59.317Z,9600
2016-06-12T10:53:59.288Z,9900
2016-06-12T10:54:59.136Z,9944
2016-06-12T10:55:59.264Z,10264
2016-06-12T10:56:59.282Z,10460
2016-06-12T10:57:59.348Z,10632
2016-06-12T10:58:59.274Z,10804
2016-06-12T10:59:59.104Z,10912
2016-06-12T11:00:59.248Z,10968
2016-06-12T11:01:59.251Z,10980
2016-06-12T11:02:59.255Z,11028
2016-06-12T11:03:59.226Z,11132
2016-06-12T11:04:59.228Z,11364
2016-06-12T11:05:59.248Z,11456
2016-06-12T11:06:59.220Z,11832
2016-06-12T11:07:59.081Z,12380
2016-06-12T11:08:59.054Z,12624
2016-06-12T11:09:59.119Z,12812
2016-06-12T11:10:59.232Z,12864
2016-06-12T11:11:59.203Z,12544
2016-06-12T11:12:59.206Z,12740
2016-06-12T11:13:59.194Z,12444
2016-06-12T11:14:59.182Z,12100
2016-06-12T11:15:59.201Z,11644
2016-06-12T11:16:59.282Z,11360
2016-06-12T11:17:59.160Z,11208
2016-06-12T11:18:59.178Z,11164
2016-06-12T11:19:59.135Z,11192
2016-06-12T11:20:59.247Z,11256
2016-06-12T11:21:59.141Z,11352
2016-06-12T11:22:59.050Z,11612
2016-06-12T11:23:59.147Z,11876
2016-06-12T11:24:59.197Z,11980
2016-06-12T11:25:59.153Z,11092
2016-06-12T11:26:59.109Z,12444
2016-06-12T11:27:59.143Z,12904
2016-06-12T11:28:59.115Z,13004
2016-06-12T11:29:59.119Z,13156
2016-06-12T11:30:59.121Z,12972
2016-06-12T11:31:59.108Z,13316
2016-06-12T11:32:59.159Z,13488
2016-06-12T11:33:59.100Z,12584
2016-06-12T11:34:59.103Z,12876
2016-06-12T11:35:59.074Z,13220
2016-06-12T11:36:59.124Z,13044
2016-06-12T11:37:59.378Z,12640
2016-06-12T11:38:59.069Z,9452
2016-06-12T11:39:59.056Z,8668
2016-06-12T11:40:59.090Z,8420
2016-06-12T11:41:59.061Z,9272
2016-06-12T11:42:59.080Z,8656
2016-06-12T11:43:59.051Z,8440
2016-06-12T11:44:59.054Z,8504
2016-06-12T11:45:58.902Z,10572
2016-06-12T11:46:59.046Z,10684
2016-06-12T11:47:58.893Z,10504
2016-06-12T11:48:58.724Z,10460
2016-06-12T11:49:59.024Z,10644
2016-06-12T11:50:59.042Z,10744
2016-06-12T11:51:59.076Z,11292
2016-06-12T11:52:59.408Z,11364
2016-06-12T11:53:58.896Z,9748
2016-06-12T11:54:58.992Z,8244
2016-06-12T11:55:58.871Z,8068
2016-06-12T11:56:58.999Z,7592
2016-06-12T11:57:59.016Z,7096
2016-06-12T11:58:58.988Z,7244
2016-06-12T11:59:59.039Z,7140
2016-06-12T12:00:58.979Z,7172
2016-06-12T12:01:58.982Z,7584
2016-06-12T12:02:58.970Z,7192
2016-06-12T12:03:58.988Z,7576
2016-06-12T12:04:58.960Z,7752
2016-06-12T12:05:58.963Z,7408
2016-06-12T12:06:58.966Z,7236
2016-06-12T12:07:59.266Z,7124
2016-06-12T12:08:58.941Z,7008
2016-06-12T12:09:58.944Z,6904
2016-06-12T12:10:58.792Z,6900
2016-06-12T12:11:58.950Z,7048
2016-06-12T12:12:58.922Z,7212
2016-06-12T12:13:58.941Z,7244
2016-06-12T12:14:58.772Z,7188
2016-06-12T12:15:58.932Z,7220
2016-06-12T12:16:58.904Z,7412
2016-06-12T12:17:58.906Z,7532
2016-06-12T12:18:58.909Z,7812
2016-06-12T12:19:58.913Z,8344
2016-06-12T12:20:58.901Z,9880
2016-06-12T12:21:58.904Z,10652
2016-06-12T12:22:59.251Z,10828
2016-06-12T12:23:58.894Z,9252
2016-06-12T12:24:58.896Z,9000
2016-06-12T12:25:58.885Z,8360
2016-06-12T12:26:58.966Z,7808
2016-06-12T12:27:58.843Z,7616
2016-06-12T12:28:58.878Z,7372
2016-06-12T12:29:58.834Z,7012
2016-06-12T12:30:58.900Z,6752
2016-06-12T12:31:58.841Z,6432
2016-06-12T12:32:58.921Z,6252
2016-06-12T12:33:58.863Z,6468
2016-06-12T12:34:58.819Z,6416
2016-06-12T12:35:58.821Z,5228
2016-06-12T12:36:58.824Z,4924
2016-06-12T12:37:58.936Z,5796
2016-06-12T12:38:58.814Z,5468
2016-06-12T12:39:58.787Z,4124
2016-06-12T12:40:58.774Z,3572
2016-06-12T12:41:58.776Z,3236
2016-06-12T12:42:58.796Z,2900
2016-06-12T12:43:58.783Z,2620
2016-06-12T12:44:58.803Z,2412
2016-06-12T12:45:58.774Z,2264
2016-06-12T12:46:58.777Z,2128
2016-06-12T12:47:58.764Z,1996
2016-06-12T12:48:58.751Z,1880
2016-06-12T12:49:58.755Z,1792
2016-06-12T12:50:58.743Z,1716
2016-06-12T12:51:58.746Z,1644
2016-06-12T12:52:58.889Z,1588
2016-06-12T12:53:58.752Z,1552
2016-06-12T12:54:58.708Z,1556
2016-06-12T12:55:58.695Z,1588
2016-06-12T12:56:58.714Z,1648
2016-06-12T12:57:58.764Z,1772
2016-06-12T12:58:58.689Z,1964
2016-06-12T12:59:58.693Z,2204
2016-06-12T13:00:58.695Z,2468
2016-06-12T13:01:58.667Z,2788
2016-06-12T13:02:58.686Z,3260
2016-06-12T13:03:58.672Z,3324
2016-06-12T13:04:58.660Z,3624
2016-06-12T13:05:58.679Z,4048
2016-06-12T13:06:58.650Z,4588
2016-06-12T13:07:59.779Z,5256
2016-06-12T13:08:58.673Z,6088
2016-06-12T13:09:58.676Z,7132
2016-06-12T13:10:58.632Z,6148
2016-06-12T13:11:58.605Z,6772
2016-06-12T13:12:58.622Z,8884
2016-06-12T13:13:58.641Z,9312
2016-06-12T13:14:58.597Z,9372
2016-06-12T13:15:58.569Z,9920
2016-06-12T13:16:58.587Z,8956
2016-06-12T13:17:58.623Z,8268
2016-06-12T13:18:58.969Z,9380
2016-06-12T13:19:58.582Z,9780
2016-06-12T13:20:58.569Z,10100
2016-06-12T13:21:58.557Z,10812
2016-06-12T13:22:59.403Z,10540
2016-06-12T13:23:58.469Z,10596
2016-06-12T13:24:58.551Z,10952
2016-06-12T13:25:58.522Z,10800
2016-06-12T13:26:58.509Z,9752
2016-06-12T13:27:58.513Z,8284
2016-06-12T13:28:58.531Z,8184
2016-06-12T13:29:58.502Z,8792
2016-06-12T13:30:58.491Z,8248
2016-06-12T13:31:58.508Z,9196